« Back
NWS Peachtree City, Ga » Text Product » AHN Terminal Aerodrome Forecast


Printer-friendly Version
Current Version              Previous Versions:   1  2  3  4  5  6  7  8  9  

Terminal Aerodrome Forecast

890
FTUS42 KFFC 302136 AAA
TAFAHN
TAF AMD
KAHN 302136Z 3022/3118 28007KT P6SM SCT050 BKN120
     FM310000 25007KT P6SM SCT060
     FM310900 00000KT P6SM BKN035
     FM311400 24004KT P6SM SCT045 PROB30 3115/3118 SHRA OVC025=

USA.gov is the U.S. government's official web portal to all federal, state and local government web resources and services.